עמוד ראשי
METAR-TAF:

METAR-TAF

שדות תעופה :

Hagåtña, גואם, ארצות הברית

קו רוחב: 13-29N, קו אורך: 144-48E, גובה: 91מטר

תצפית מזג אוויר נוכחית

הדו"ח נערך לפני 57דקות, בשעה 10:54 UTC
רוח 6קשר מכיוון מזרח/צפון-מזרח
טמפרטורת 27 צלסיוס
לחות 79%
לחץ 1012 hPa
ראות: 16.1קילומטר
שמיים נקיים

METAR: PGUM 171054Z 06006KT 10SM CLR 27/23 A2989 RMK AO2 SLP113 T02720233

זמן: 21:51 (11:51 UTC)

תחזית

הדו"ח נערך לפני 31דקות, בשעה 11:20 UTC
תחזית בתוקף מ 17 ב 12 UTC עד 18 ב 18 UTC
רוח 7קשר מכיוון מזרח/צפון-מזרח
ראות: 10קילומטר
מעט עננים בגובה 1800רגל
עננים פזורים בגובה 3500רגל
מ 17 ב 2300UTC
רוח 11קשר מכיוון מזרח עם משבים עד 19קשר
ראות: 10קילומטר
מעט עננים בגובה 1800רגל
עננים פזורים בגובה 3500רגל
עננים פזורים בגובה 5000רגל
ממטרים במרחב,

TAF: PGUM 171120Z 1712/1818 07007KT P6SM FEW018 SCT035 FM172300 09011G19KT P6SM VCSH FEW018 SCT035 SCT050

תצפיות ותחזיות מזג אוויר לגבי יותר מ- 4,000 שדות תעופה ברחבי העולם. דוחות METAR ו- TAF.

התחנות הזמינות מסומנות בנקודות צהובות ואדומות על גבי המפה.

העבר את העכבר לנקודה הצבעונית על מנת לראות את שם התחנה.

לאחר מכן, לחץ כדי לראות את תוכן ואת תחזיות מזג האוויר.

כדי לשנות את המפה: לחץ על הכפתורים הירוקים עם הפלוס השחור כדי להתקרב; על הכפתור הירוק עם המקף כדי להתרחק; או בחיצים הירוקים למפות סמוכות.


METAR-TAF: